createdAt,value
2019-04-16T04:55:42.848Z,15.90
2019-04-16T04:58:05.481Z,15.87
2019-04-16T05:00:28.153Z,16.93
2019-04-16T05:02:50.709Z,16.47
2019-04-16T05:05:27.331Z,16.93
2019-04-16T05:07:49.875Z,16.23
2019-04-16T05:10:12.447Z,16.90
2019-04-16T05:12:34.906Z,15.93
2019-04-16T05:14:58.724Z,17.13
2019-04-16T05:17:22.931Z,17.17
2019-04-16T05:19:48.731Z,17.93
2019-04-16T05:22:11.224Z,17.80
2019-04-16T05:24:33.659Z,19.30
2019-04-16T05:26:56.390Z,17.23
2019-04-16T05:29:19.114Z,15.57
2019-04-16T05:31:42.048Z,16.60
2019-04-16T05:34:06.022Z,15.47
2019-04-16T05:36:28.916Z,15.83
2019-04-16T05:38:55.486Z,15.03
2019-04-16T05:41:20.666Z,15.43
2019-04-16T05:43:40.164Z,15.13
2019-04-16T05:46:05.553Z,15.73
2019-04-16T05:48:27.178Z,15.27
2019-04-16T05:50:49.804Z,16.30
2019-04-16T05:53:13.368Z,16.30
2019-04-16T05:55:58.618Z,16.07
2019-04-16T05:58:21.198Z,15.97
2019-04-16T06:00:53.432Z,15.93
2019-04-16T06:03:20.624Z,15.97
2019-04-16T06:05:40.362Z,16.07
2019-04-16T06:08:10.326Z,16.13
2019-04-16T06:10:33.051Z,17.40
2019-04-16T06:13:15.796Z,16.97
2019-04-16T06:15:57.928Z,17.17
2019-04-16T06:18:49.012Z,16.93
2019-04-16T06:21:49.779Z,16.63
2019-04-16T06:24:26.657Z,16.10
2019-04-16T06:27:00.504Z,16.50
2019-04-16T06:29:40.122Z,17.73
2019-04-16T06:32:28.877Z,17.10
2019-04-16T06:35:23.568Z,16.50
2019-04-16T06:37:59.923Z,16.50
2019-04-16T06:40:43.926Z,16.20
2019-04-16T06:43:34.840Z,16.63
2019-04-16T06:46:17.938Z,15.60
2019-04-16T06:49:02.695Z,18.10
2019-04-16T06:51:43.554Z,16.37
2019-04-16T06:54:35.756Z,17.07
2019-04-16T06:57:27.395Z,15.83
2019-04-16T07:00:15.467Z,16.90
2019-04-16T07:03:02.444Z,16.93
2019-04-16T07:05:39.314Z,16.53
2019-04-16T07:08:20.220Z,16.27
2019-04-16T07:10:52.873Z,17.07
2019-04-16T07:13:15.319Z,17.33
2019-04-16T07:15:37.852Z,16.60
2019-04-16T07:18:02.555Z,16.60
2019-04-16T07:20:25.552Z,16.47
2019-04-16T07:22:52.745Z,16.43
2019-04-16T07:25:12.564Z,17.53
2019-04-16T07:27:41.496Z,16.53
2019-04-16T07:30:09.271Z,17.03
2019-04-16T07:32:45.901Z,17.33
2019-04-16T07:35:46.282Z,16.97
2019-04-16T07:38:28.311Z,16.17
2019-04-16T07:41:18.566Z,16.50
2019-04-16T07:44:04.467Z,17.47
2019-04-16T07:46:44.173Z,17.27
2019-04-16T07:49:37.620Z,17.27
2019-04-16T07:52:31.925Z,17.37
2019-04-16T07:55:27.353Z,17.57
2019-04-16T07:57:56.444Z,17.63
2019-04-16T08:00:19.538Z,18.13
2019-04-16T08:02:42.295Z,16.83
2019-04-16T08:05:08.657Z,17.50
2019-04-16T08:07:32.458Z,17.23
2019-04-16T08:10:02.095Z,16.53
2019-04-16T08:12:30.515Z,17.30
2019-04-16T08:14:48.114Z,17.17
2019-04-16T08:17:10.583Z,18.03
2019-04-16T08:19:36.961Z,17.63
2019-04-16T08:21:57.477Z,17.93
2019-04-16T08:24:25.550Z,17.57
2019-04-16T08:26:48.100Z,18.33
2019-04-16T08:29:11.124Z,16.67
2019-04-16T08:31:36.828Z,17.93
2019-04-16T08:33:59.420Z,17.43
2019-04-16T08:36:21.968Z,17.50
2019-04-16T08:38:45.510Z,16.83
2019-04-16T08:41:08.151Z,18.97
2019-04-16T08:43:30.730Z,17.47
2019-04-16T08:45:53.369Z,17.93
2019-04-16T08:48:18.636Z,18.67
2019-04-16T08:50:40.310Z,18.67
2019-04-16T08:53:02.887Z,18.50
2019-04-16T08:55:25.485Z,19.23
2019-04-16T08:57:49.175Z,18.63
2019-04-16T09:00:15.409Z,18.93
2019-04-16T09:02:40.024Z,18.73
2019-04-16T09:05:06.392Z,19.17
2019-04-16T09:07:41.192Z,18.23
2019-04-16T09:10:16.177Z,18.03
2019-04-16T09:12:31.186Z,18.90
2019-04-16T09:15:03.837Z,18.40
2019-04-16T09:17:30.790Z,19.17
2019-04-16T09:20:09.205Z,19.00
2019-04-16T09:22:31.746Z,18.17
2019-04-16T09:25:01.622Z,19.63
2019-04-16T09:27:34.122Z,18.27
2019-04-16T09:30:09.862Z,19.40
2019-04-16T09:33:01.068Z,19.10
2019-04-16T09:42:53.199Z,19.67
2019-04-16T09:49:10.556Z,19.10
2019-04-16T09:52:25.078Z,19.57
2019-04-16T09:54:58.304Z,20.30
2019-04-16T09:58:25.475Z,19.67
2019-04-16T10:01:07.849Z,19.70
2019-04-16T10:03:38.982Z,19.13
2019-04-16T10:06:18.379Z,19.70
2019-04-16T10:08:44.353Z,19.57
2019-04-16T10:11:19.786Z,18.57
2019-04-16T10:14:01.740Z,18.83
2019-04-16T10:16:29.156Z,18.57
2019-04-16T10:20:10.204Z,18.87
2019-04-16T10:23:17.841Z,18.73
2019-04-16T10:26:35.598Z,17.53
2019-04-16T10:29:06.520Z,18.37
2019-04-16T10:31:30.328Z,17.40
2019-04-16T10:33:52.995Z,17.40
2019-04-16T10:36:15.667Z,16.43
2019-04-16T10:38:50.066Z,16.90
2019-04-16T10:41:16.574Z,15.70
2019-04-16T10:43:46.531Z,15.53
2019-04-16T10:46:56.808Z,14.87
2019-04-16T10:49:38.395Z,17.10
2019-04-16T10:52:23.814Z,16.63
2019-04-16T10:55:14.030Z,13.10
2019-04-16T10:58:26.541Z,12.83
2019-04-16T11:00:55.441Z,14.80
2019-04-16T11:03:38.065Z,14.60
2019-04-16T11:06:05.742Z,15.80
2019-04-16T11:08:31.418Z,14.47
2019-04-16T12:25:26.615Z,8.33
2019-04-16T12:28:11.828Z,8.33
2019-04-16T12:30:57.062Z,8.45
2019-04-16T12:33:42.061Z,8.43
2019-04-16T12:36:35.308Z,7.97
2019-04-16T12:39:04.062Z,7.65
2019-04-16T12:42:00.054Z,7.60
2019-04-16T12:44:28.129Z,7.50
2019-04-16T12:47:14.693Z,7.08
2019-04-16T12:50:08.916Z,7.13
2019-04-16T12:52:54.934Z,7.00
2019-04-16T12:55:52.925Z,6.92
2019-04-16T12:58:34.897Z,7.57
2019-04-16T13:01:37.195Z,6.73
2019-04-16T13:04:20.455Z,6.12
2019-04-16T13:07:31.976Z,6.37
2019-04-16T13:10:26.713Z,7.37
2019-04-16T13:13:09.865Z,7.22
2019-04-16T13:16:05.505Z,6.03
2019-04-16T13:18:52.839Z,7.00
2019-04-16T13:21:32.737Z,6.97
2019-04-16T13:24:29.569Z,6.83
2019-04-16T13:27:22.743Z,6.43
2019-04-16T13:30:05.845Z,6.27
2019-04-16T13:32:32.626Z,6.63
2019-04-16T13:34:58.223Z,6.63
2019-04-16T13:37:23.988Z,6.40
2019-04-16T13:40:19.151Z,6.23
2019-04-16T13:42:47.011Z,6.73
2019-04-16T13:45:49.235Z,6.77
2019-04-16T13:48:53.125Z,6.07
2019-04-16T13:51:20.849Z,6.43
2019-04-16T13:54:23.124Z,6.17
2019-04-16T13:57:16.492Z,6.87
2019-04-16T14:00:02.955Z,6.70
2019-04-16T14:02:29.490Z,6.40
2019-04-16T14:04:59.866Z,6.40
2019-04-16T14:07:30.704Z,5.90
2019-04-16T14:09:57.986Z,6.27
2019-04-16T14:12:41.861Z,5.97
2019-04-16T14:15:10.382Z,6.40
2019-04-16T14:17:51.830Z,7.23
2019-04-16T14:20:08.639Z,10.50
2019-04-16T14:22:41.580Z,10.83
2019-04-16T14:25:09.178Z,10.00
2019-04-16T14:27:39.105Z,10.70
2019-04-16T14:30:10.309Z,10.40
2019-04-16T14:32:47.727Z,10.40
2019-04-16T14:35:15.571Z,9.97
2019-04-16T14:37:48.360Z,10.07
2019-04-16T14:40:21.385Z,9.80
2019-04-16T14:42:43.974Z,10.57
2019-04-16T14:45:16.177Z,8.97
2019-04-16T14:47:38.681Z,8.57
2019-04-16T14:50:01.255Z,8.30
2019-04-16T14:52:24.265Z,8.57
2019-04-16T14:54:52.403Z,8.40
2019-04-16T14:57:15.218Z,8.07
2019-04-16T14:59:53.812Z,7.47
2019-04-16T15:02:30.533Z,7.53
2019-04-16T15:05:19.325Z,7.73
2019-04-16T15:08:01.452Z,7.07
2019-04-16T15:10:46.725Z,7.03
2019-04-16T15:13:28.783Z,6.53
2019-04-16T15:16:13.849Z,5.93
2019-04-16T15:18:55.452Z,5.90
2019-04-16T15:21:43.046Z,5.63
2019-04-16T15:24:07.732Z,5.40
2019-04-16T15:26:53.486Z,6.37
2019-04-16T15:29:23.492Z,6.13
2019-04-16T15:32:08.144Z,6.43
2019-04-16T15:34:41.963Z,6.00
2019-04-16T15:37:10.198Z,6.63
2019-04-16T15:39:42.062Z,6.43
2019-04-16T15:42:36.647Z,6.10
2019-04-16T15:45:08.070Z,6.27
2019-04-16T15:47:47.056Z,7.77
2019-04-16T15:50:35.085Z,7.90
2019-04-16T15:52:59.262Z,7.10
2019-04-16T15:56:00.908Z,7.93
2019-04-16T15:58:42.085Z,7.00
2019-04-16T16:02:02.478Z,7.17
2019-04-16T16:05:17.145Z,7.47
2019-04-16T18:53:47.724Z,9.90
2019-04-16T18:56:10.499Z,10.23
2019-04-16T18:58:33.210Z,9.97
2019-04-16T19:01:01.228Z,9.60
2019-04-16T19:03:23.858Z,10.17
2019-04-16T19:05:46.596Z,9.40
2019-04-16T19:08:10.628Z,9.90
2019-04-16T19:10:33.416Z,10.13
2019-04-16T19:12:56.472Z,9.93
2019-04-16T19:15:19.245Z,11.93
2019-04-16T19:17:41.747Z,11.17
2019-04-16T19:20:05.324Z,11.37
2019-04-16T19:22:28.049Z,12.37
2019-04-16T19:24:50.631Z,12.07
2019-04-16T19:27:13.198Z,13.00
2019-04-16T19:29:35.897Z,13.67
2019-04-16T19:31:58.762Z,15.20
2019-04-16T19:34:21.528Z,15.70
2019-04-16T19:36:44.140Z,16.37
2019-04-16T19:39:13.501Z,14.57
2019-04-16T19:41:32.507Z,18.00
2019-04-16T19:43:55.186Z,15.23
2019-04-16T19:46:17.889Z,16.40
2019-04-16T19:48:40.501Z,14.70
2019-04-16T19:51:03.124Z,13.83
2019-04-16T19:53:25.607Z,12.30
2019-04-16T19:55:48.211Z,12.93
2019-04-16T19:58:10.775Z,11.93
2019-04-16T20:00:33.354Z,13.70
